createdAt,value
2022-08-29T00:01:56.908Z,100739.53
2022-08-29T00:04:26.404Z,100735.72
2022-08-29T00:06:57.198Z,100740.56
2022-08-29T00:09:26.678Z,100737.69
2022-08-29T00:11:56.136Z,100744.28
2022-08-29T00:14:26.111Z,100738.78
2022-08-29T00:16:58.179Z,100749.34
2022-08-29T00:19:27.688Z,100749.31
2022-08-29T00:21:57.146Z,100739.28
2022-08-29T00:24:26.683Z,100751.81
2022-08-29T00:26:56.119Z,100754.31
2022-08-29T00:29:25.595Z,100746.31
2022-08-29T00:31:55.121Z,100751.63
2022-08-29T00:34:27.182Z,100748.25
2022-08-29T00:36:56.693Z,100751.69
2022-08-29T00:39:27.376Z,100747.25
2022-08-29T00:41:56.839Z,100753.75
2022-08-29T00:44:26.289Z,100748.63
2022-08-29T00:46:57.088Z,100750.59
2022-08-29T00:49:35.252Z,100749.56
2022-08-29T00:52:08.895Z,100758.66
2022-08-29T00:54:38.957Z,100760.44
2022-08-29T00:57:08.450Z,100751.63
2022-08-29T00:59:39.351Z,100750.25
2022-08-29T01:02:11.082Z,100756.13
2022-08-29T01:04:43.249Z,100756.84
2022-08-29T01:07:12.908Z,100753.44
2022-08-29T01:09:43.577Z,100749.69
2022-08-29T01:12:16.274Z,100761.25
2022-08-29T01:14:48.606Z,100759.47
2022-08-29T01:17:20.980Z,100756.31
2022-08-29T01:19:56.057Z,100753.84
2022-08-29T01:22:34.980Z,100753.00
2022-08-29T01:25:08.777Z,100764.16
2022-08-29T01:27:39.824Z,100767.91
2022-08-29T01:30:10.922Z,100766.84
2022-08-29T01:32:40.401Z,100765.91
2022-08-29T01:35:11.300Z,100762.53
2022-08-29T01:37:41.509Z,100759.03
2022-08-29T01:40:14.673Z,100758.22
2022-08-29T01:42:44.428Z,100753.59
2022-08-29T01:45:14.187Z,100755.97
2022-08-29T01:47:43.655Z,100753.44
2022-08-29T01:50:17.900Z,100754.19
2022-08-29T01:52:48.079Z,100748.97
2022-08-29T01:55:20.141Z,100759.56
2022-08-29T01:57:49.798Z,100755.81
2022-08-29T02:00:20.990Z,100758.75
2022-08-29T02:02:50.453Z,100766.19
2022-08-29T02:05:23.414Z,100763.84
2022-08-29T02:07:52.901Z,100768.56
2022-08-29T02:10:24.994Z,100767.66
2022-08-29T02:12:55.073Z,100770.78
2022-08-29T02:15:24.710Z,100778.16
2022-08-29T02:17:54.150Z,100773.63
2022-08-29T02:20:23.600Z,100781.16
2022-08-29T02:22:53.086Z,100781.50
2022-08-29T02:25:37.698Z,100782.16
2022-08-29T02:28:07.179Z,100771.25
2022-08-29T02:30:36.763Z,100775.06
2022-08-29T02:33:06.423Z,100770.47
2022-08-29T02:35:38.870Z,100774.91
2022-08-29T02:38:12.321Z,100778.25
2022-08-29T02:40:44.561Z,100779.72
2022-08-29T02:43:15.493Z,100779.81
2022-08-29T02:45:45.201Z,100786.47
2022-08-29T02:48:15.161Z,100791.56
2022-08-29T02:50:45.334Z,100785.78
2022-08-29T02:53:16.912Z,100785.03
2022-08-29T02:55:48.930Z,100780.28
2022-08-29T02:58:18.442Z,100783.03
2022-08-29T03:00:47.920Z,100774.91
2022-08-29T03:03:17.421Z,100775.56
2022-08-29T03:05:47.870Z,100773.47
2022-08-29T03:08:18.917Z,100773.94
2022-08-29T03:10:50.759Z,100767.78
2022-08-29T03:13:20.298Z,100763.81
2022-08-29T03:15:49.973Z,100764.66
2022-08-29T03:18:19.920Z,100771.56
2022-08-29T03:20:51.663Z,100764.53
2022-08-29T03:23:21.262Z,100764.66
2022-08-29T03:25:53.472Z,100767.50
2022-08-29T03:28:23.104Z,100764.38
2022-08-29T03:30:52.644Z,100774.34
2022-08-29T03:33:22.140Z,100770.50
2022-08-29T03:35:51.601Z,100775.66
2022-08-29T03:38:22.774Z,100771.75
2022-08-29T03:40:58.224Z,100774.19
2022-08-29T03:43:27.878Z,100772.09
2022-08-29T03:45:57.345Z,100771.63
2022-08-29T03:48:26.791Z,100775.09
2022-08-29T03:50:56.640Z,100774.88
2022-08-29T03:53:26.632Z,100772.28
2022-08-29T03:55:59.189Z,100769.22
2022-08-29T03:58:28.628Z,100777.00
2022-08-29T04:00:58.941Z,100778.81
2022-08-29T04:03:31.205Z,100778.22
2022-08-29T04:06:01.344Z,100775.97
2022-08-29T04:08:30.782Z,100775.13
2022-08-29T04:11:04.093Z,100763.53
2022-08-29T04:13:33.567Z,100759.72
2022-08-29T04:16:03.026Z,100761.19
2022-08-29T04:18:32.491Z,100757.81
2022-08-29T04:21:03.978Z,100763.91
2022-08-29T04:23:33.458Z,100773.13
2022-08-29T04:26:27.171Z,100771.41
2022-08-29T04:28:54.931Z,100770.03
2022-08-29T04:31:24.439Z,100767.13
2022-08-29T04:33:54.007Z,100763.25
2022-08-29T04:36:23.449Z,100769.94
2022-08-29T04:38:52.902Z,100761.81
2022-08-29T04:41:24.914Z,100771.59
2022-08-29T04:43:54.373Z,100780.00
2022-08-29T04:46:24.759Z,100779.72
2022-08-29T04:48:54.630Z,100780.78
2022-08-29T04:51:24.194Z,100782.50
2022-08-29T04:53:53.853Z,100781.56
2022-08-29T04:56:25.941Z,100787.38
2022-08-29T04:58:55.374Z,100789.94
2022-08-29T05:01:27.129Z,100794.00
2022-08-29T05:03:58.058Z,100788.38
2022-08-29T05:06:29.263Z,100797.69
2022-08-29T05:08:59.874Z,100786.19
2022-08-29T05:11:33.546Z,100789.03
2022-08-29T05:14:03.114Z,100785.22
2022-08-29T05:16:37.117Z,100786.59
2022-08-29T05:19:08.357Z,100791.16
2022-08-29T05:21:40.026Z,100791.09
2022-08-29T05:24:10.845Z,100795.94
2022-08-29T05:26:44.174Z,100785.22
2022-08-29T05:29:14.141Z,100795.16
2022-08-29T05:31:44.521Z,100791.72
2022-08-29T05:34:33.904Z,100789.38
2022-08-29T05:37:04.786Z,100790.53
2022-08-29T05:39:34.242Z,100789.78
2022-08-29T05:42:07.232Z,100788.25
2022-08-29T05:44:36.933Z,100800.84
2022-08-29T05:47:06.568Z,100799.56
2022-08-29T05:49:37.463Z,100800.44
2022-08-29T05:52:07.818Z,100806.59
2022-08-29T05:54:38.341Z,100809.41
2022-08-29T05:57:13.189Z,100804.94
2022-08-29T05:59:44.964Z,100812.59
2022-08-29T06:02:14.612Z,100808.66
2022-08-29T06:04:44.142Z,100808.97
2022-08-29T06:07:13.699Z,100805.25
2022-08-29T06:09:44.065Z,100806.47
2022-08-29T06:12:16.746Z,100806.66
2022-08-29T06:14:50.498Z,100810.31
2022-08-29T06:17:20.322Z,100811.69
2022-08-29T06:19:52.443Z,100819.25
2022-08-29T06:22:22.532Z,100824.00
2022-08-29T06:24:55.070Z,100827.91
2022-08-29T06:27:29.838Z,100828.50
2022-08-29T06:30:01.906Z,100836.41
2022-08-29T06:32:31.732Z,100826.84
2022-08-29T06:35:01.345Z,100835.31
2022-08-29T06:37:30.783Z,100832.41
2022-08-29T06:40:00.314Z,100829.97
2022-08-29T06:42:32.410Z,100836.22
2022-08-29T06:45:01.874Z,100830.00
2022-08-29T06:47:31.499Z,100834.34
2022-08-29T06:50:00.963Z,100840.34
2022-08-29T06:52:30.603Z,100837.59
2022-08-29T06:55:00.117Z,100843.78
2022-08-29T06:57:33.399Z,100839.16
2022-08-29T07:00:03.246Z,100837.22
2022-08-29T07:02:52.367Z,100842.84
2022-08-29T07:05:22.684Z,100845.53
2022-08-29T07:07:52.248Z,100844.34
2022-08-29T07:10:22.965Z,100849.72
2022-08-29T07:12:55.254Z,100852.28
2022-08-29T07:15:25.305Z,100853.09
2022-08-29T07:17:59.751Z,100852.09
2022-08-29T07:20:29.472Z,100844.34
2022-08-29T07:22:59.356Z,100841.97
2022-08-29T07:25:28.833Z,100844.00
2022-08-29T07:28:00.862Z,100847.09
2022-08-29T07:30:30.599Z,100849.50
2022-08-29T07:33:00.046Z,100847.88
2022-08-29T07:35:30.667Z,100846.19
2022-08-29T07:38:01.224Z,100847.81
2022-08-29T07:40:31.003Z,100843.25
2022-08-29T07:43:03.306Z,100843.19
2022-08-29T07:45:32.835Z,100845.44
2022-08-29T07:48:02.321Z,100843.53
2022-08-29T07:50:37.280Z,100835.19
2022-08-29T07:53:06.735Z,100844.78
2022-08-29T07:55:36.441Z,100846.69
2022-08-29T07:58:08.451Z,100834.81
2022-08-29T08:00:37.894Z,100846.16
2022-08-29T08:03:08.725Z,100841.84
2022-08-29T08:05:38.243Z,100844.38
2022-08-29T08:08:15.074Z,100843.00
2022-08-29T08:10:48.938Z,100842.47
2022-08-29T08:13:23.450Z,100847.56
2022-08-29T08:15:52.911Z,100845.63
2022-08-29T08:18:22.370Z,100853.84
2022-08-29T08:20:51.829Z,100855.13
2022-08-29T08:23:21.787Z,100859.50
2022-08-29T08:25:51.270Z,100867.19
2022-08-29T08:28:23.327Z,100865.41
2022-08-29T08:30:52.821Z,100851.56
2022-08-29T08:33:22.294Z,100851.94
2022-08-29T08:35:51.750Z,100860.59
2022-08-29T08:38:21.772Z,100850.94
2022-08-29T08:40:57.103Z,100848.16
2022-08-29T08:43:33.683Z,100842.72
2022-08-29T08:46:03.206Z,100840.69
2022-08-29T08:48:36.112Z,100841.31
2022-08-29T08:51:06.507Z,100842.16
2022-08-29T08:53:37.354Z,100847.03
2022-08-29T08:56:08.377Z,100846.22
2022-08-29T08:58:42.838Z,100847.59
2022-08-29T09:01:15.933Z,100849.09
2022-08-29T09:04:04.126Z,100846.97
2022-08-29T09:06:41.370Z,100853.34
2022-08-29T09:09:15.730Z,100856.03
2022-08-29T09:11:51.416Z,100849.56
2022-08-29T09:14:33.696Z,100851.22
2022-08-29T09:17:03.152Z,100860.41
2022-08-29T09:19:32.601Z,100851.91
2022-08-29T09:22:02.823Z,100849.69
2022-08-29T09:24:45.420Z,100858.94
2022-08-29T09:27:20.599Z,100851.03
2022-08-29T09:29:56.981Z,100854.38
2022-08-29T09:32:26.440Z,100854.88
2022-08-29T09:35:08.613Z,100851.25
2022-08-29T09:37:39.411Z,100847.78
2022-08-29T09:40:11.734Z,100845.25
2022-08-29T09:42:42.742Z,100845.91
2022-08-29T09:45:21.998Z,100848.94
2022-08-29T09:47:51.488Z,100855.75
2022-08-29T09:50:25.135Z,100848.00
2022-08-29T09:52:55.513Z,100851.06
2022-08-29T09:55:31.802Z,100853.06
2022-08-29T09:58:03.689Z,100846.63
2022-08-29T10:00:36.950Z,100843.47
2022-08-29T10:03:07.353Z,100843.06
2022-08-29T10:05:41.510Z,100838.09
2022-08-29T10:08:27.226Z,100833.34
2022-08-29T10:10:58.582Z,100827.63
2022-08-29T10:13:31.505Z,100828.66
2022-08-29T10:16:12.846Z,100833.72
2022-08-29T10:18:46.439Z,100833.53
2022-08-29T10:21:24.434Z,100830.63
2022-08-29T10:24:03.543Z,100829.25
2022-08-29T10:26:37.857Z,100821.03
2022-08-29T10:29:12.491Z,100834.22
2022-08-29T10:31:46.558Z,100834.09
2022-08-29T10:34:30.599Z,100831.13
2022-08-29T10:37:02.141Z,100822.84
2022-08-29T10:39:36.909Z,100816.31
2022-08-29T10:42:09.764Z,100806.72
2022-08-29T10:44:46.237Z,100805.09
2022-08-29T10:47:25.365Z,100801.94
2022-08-29T10:50:34.077Z,100798.25
2022-08-29T10:53:09.929Z,100798.94
2022-08-29T10:55:50.932Z,100789.09
2022-08-29T10:58:26.760Z,100787.97
2022-08-29T11:00:58.394Z,100791.72
2022-08-29T11:03:36.095Z,100789.38
2022-08-29T11:06:08.761Z,100784.91
2022-08-29T11:08:40.227Z,100782.03
2022-08-29T11:11:10.001Z,100791.22
2022-08-29T11:13:41.128Z,100783.19
2022-08-29T11:16:14.003Z,100783.59
2022-08-29T11:18:47.768Z,100784.28
2022-08-29T11:21:22.268Z,100787.09
2022-08-29T11:23:51.763Z,100784.25
2022-08-29T11:26:32.460Z,100778.50
2022-08-29T11:29:04.905Z,100779.44
2022-08-29T11:31:41.829Z,100776.59
2022-08-29T11:34:24.283Z,100772.28
2022-08-29T11:37:02.484Z,100771.16
2022-08-29T11:39:53.489Z,100772.69
2022-08-29T11:42:53.541Z,100765.09
2022-08-29T11:45:35.372Z,100770.44
2022-08-29T11:48:20.632Z,100764.41
2022-08-29T11:50:52.738Z,100764.41
2022-08-29T11:53:33.953Z,100764.59
2022-08-29T11:56:27.881Z,100762.28
2022-08-29T11:58:57.974Z,100761.88
2022-08-29T12:01:57.577Z,100752.28
2022-08-29T12:04:55.496Z,100743.44
2022-08-29T12:07:36.227Z,100731.06
2022-08-29T12:10:06.525Z,100723.75
2022-08-29T12:12:40.612Z,100730.56
2022-08-29T12:15:48.969Z,100730.34
2022-08-29T12:18:46.212Z,100725.94
2022-08-29T12:21:37.338Z,100727.72
2022-08-29T12:24:09.942Z,100727.41
2022-08-29T12:26:44.953Z,100725.63
2022-08-29T12:29:22.105Z,100721.31
2022-08-29T12:32:22.150Z,100709.81
2022-08-29T12:35:11.907Z,100709.53
2022-08-29T12:37:53.864Z,100703.00
2022-08-29T12:40:44.354Z,100698.44
2022-08-29T12:43:23.694Z,100704.31
2022-08-29T12:45:53.258Z,100702.75
2022-08-29T12:48:27.537Z,100691.72
2022-08-29T12:50:57.017Z,100688.91
2022-08-29T12:53:27.838Z,100689.25
2022-08-29T12:56:01.155Z,100687.25
2022-08-29T12:58:39.354Z,100684.19
2022-08-29T13:01:10.915Z,100677.88
2022-08-29T13:03:40.416Z,100680.50
2022-08-29T13:06:12.384Z,100668.28
2022-08-29T13:08:42.087Z,100673.94
2022-08-29T13:11:14.374Z,100682.03
2022-08-29T13:13:43.862Z,100670.28
2022-08-29T13:16:25.822Z,100672.72
2022-08-29T13:19:09.952Z,100674.19
2022-08-29T13:21:40.193Z,100673.75
2022-08-29T13:24:13.653Z,100669.38
2022-08-29T13:27:01.128Z,100682.59
2022-08-29T13:29:37.186Z,100666.44
2022-08-29T13:32:23.905Z,100663.50
2022-08-29T13:35:08.123Z,100663.50
2022-08-29T13:37:38.873Z,100656.81
2022-08-29T13:40:33.334Z,100663.78
2022-08-29T13:43:05.662Z,100648.38
2022-08-29T13:45:35.136Z,100650.75
2022-08-29T13:48:23.390Z,100659.00
2022-08-29T13:50:52.849Z,100658.91
2022-08-29T13:53:22.449Z,100659.28
2022-08-29T13:55:51.918Z,100649.69
2022-08-29T13:58:26.811Z,100649.91
2022-08-29T14:00:56.391Z,100646.00
2022-08-29T14:03:26.364Z,100654.81
2022-08-29T14:05:56.599Z,100649.47
2022-08-29T14:08:26.293Z,100645.47
2022-08-29T14:10:55.754Z,100638.53
2022-08-29T14:13:28.089Z,100633.22
2022-08-29T14:15:57.615Z,100634.09
2022-08-29T14:18:27.140Z,100635.81
2022-08-29T14:21:00.315Z,100632.63
2022-08-29T14:23:29.937Z,100634.31
2022-08-29T14:25:59.418Z,100625.00
2022-08-29T14:28:31.575Z,100626.69
2022-08-29T14:31:01.157Z,100619.88
2022-08-29T14:33:30.782Z,100617.13
2022-08-29T14:36:00.468Z,100616.88
2022-08-29T14:38:30.612Z,100609.59
2022-08-29T14:41:00.076Z,100613.69
2022-08-29T14:43:35.232Z,100616.53
2022-08-29T14:46:07.313Z,100606.06
2022-08-29T14:48:36.874Z,100604.59
2022-08-29T14:51:06.482Z,100610.22
2022-08-29T14:53:47.054Z,100613.78
2022-08-29T14:56:44.723Z,100599.97
2022-08-29T14:59:16.739Z,100599.16
2022-08-29T15:01:51.271Z,100603.75
2022-08-29T15:04:35.014Z,100600.63
2022-08-29T15:07:06.105Z,100591.97
2022-08-29T15:09:35.692Z,100591.78
2022-08-29T15:12:05.776Z,100593.19
2022-08-29T15:14:37.919Z,100589.44
2022-08-29T15:17:08.018Z,100586.91
2022-08-29T15:20:31.185Z,100589.91
2022-08-29T15:22:27.700Z,100590.19
2022-08-29T15:24:57.387Z,100596.34
2022-08-29T15:27:27.843Z,100594.53
2022-08-29T15:29:59.970Z,100592.91
2022-08-29T15:32:29.602Z,100589.13
2022-08-29T15:34:59.331Z,100595.97
2022-08-29T15:37:29.081Z,100591.91
2022-08-29T15:39:58.807Z,100592.31
2022-08-29T15:42:30.431Z,100587.16
2022-08-29T15:45:07.453Z,100586.72
2022-08-29T15:47:37.678Z,100579.97
2022-08-29T15:50:08.642Z,100580.06
2022-08-29T15:52:38.304Z,100581.72
2022-08-29T15:55:08.854Z,100579.78
2022-08-29T15:57:42.385Z,100585.41
2022-08-29T16:00:30.627Z,100583.63
2022-08-29T16:03:02.853Z,100590.50
2022-08-29T16:05:32.734Z,100586.41
2022-08-29T16:08:02.302Z,100581.84
2022-08-29T16:10:31.800Z,100582.47
2022-08-29T16:13:01.475Z,100582.41
2022-08-29T16:15:35.015Z,100578.66
2022-08-29T16:18:04.936Z,100573.03
2022-08-29T16:20:34.662Z,100566.22
2022-08-29T16:23:04.332Z,100564.94
2022-08-29T16:25:34.002Z,100568.19
2022-08-29T16:28:06.027Z,100569.88
2022-08-29T16:30:44.225Z,100571.69
2022-08-29T16:33:15.417Z,100567.44
2022-08-29T16:35:44.856Z,100571.25
2022-08-29T16:38:14.549Z,100570.50
2022-08-29T16:40:44.260Z,100572.69
2022-08-29T16:43:13.820Z,100568.75
2022-08-29T16:45:45.942Z,100571.97
2022-08-29T16:48:17.866Z,100560.19
2022-08-29T16:50:47.762Z,100567.00
2022-08-29T16:53:17.236Z,100565.00
2022-08-29T16:55:46.808Z,100571.00
2022-08-29T16:58:28.785Z,100564.16
2022-08-29T17:01:01.012Z,100563.72
2022-08-29T17:03:30.668Z,100555.53
2022-08-29T17:06:00.169Z,100555.19
2022-08-29T17:08:26.912Z,100555.41
2022-08-29T17:10:53.611Z,100551.41
2022-08-29T17:13:20.348Z,100542.63
2022-08-29T17:15:47.072Z,100540.63
2022-08-29T17:18:19.233Z,100547.59
2022-08-29T17:20:48.936Z,100550.97
2022-08-29T17:23:18.896Z,100562.00
2022-08-29T17:25:48.397Z,100560.38
2022-08-29T17:28:18.903Z,100556.38
2022-08-29T17:30:49.075Z,100565.34
2022-08-29T17:33:21.420Z,100567.44
2022-08-29T17:35:51.299Z,100570.66
2022-08-29T17:38:20.897Z,100568.25
2022-08-29T17:40:50.973Z,100573.91
2022-08-29T17:43:21.000Z,100575.44
2022-08-29T17:45:50.563Z,100571.72
2022-08-29T17:48:22.909Z,100576.78
2022-08-29T17:50:52.928Z,100573.06
2022-08-29T17:53:23.058Z,100581.03
2022-08-29T17:55:52.526Z,100573.47
2022-08-29T17:58:22.197Z,100575.81
2022-08-29T18:00:52.437Z,100576.38
2022-08-29T18:03:24.937Z,100570.09
2022-08-29T18:05:54.414Z,100579.34
2022-08-29T18:08:23.917Z,100581.75
2022-08-29T18:10:53.402Z,100586.91
2022-08-29T18:13:24.208Z,100583.25
2022-08-29T18:15:54.706Z,100591.28
2022-08-29T18:18:26.768Z,100594.38
2022-08-29T18:20:56.240Z,100592.88
2022-08-29T18:23:25.729Z,100591.34
2022-08-29T18:25:55.226Z,100598.75
2022-08-29T18:28:24.700Z,100593.13
2022-08-29T18:30:54.528Z,100597.53
2022-08-29T18:33:38.711Z,100598.53
2022-08-29T18:36:14.422Z,100604.84
2022-08-29T18:38:44.079Z,100602.63
2022-08-29T18:41:13.569Z,100604.09
2022-08-29T18:43:44.692Z,100599.03
2022-08-29T18:46:14.221Z,100604.84
2022-08-29T18:48:46.406Z,100598.19
2022-08-29T18:51:13.323Z,100607.50
2022-08-29T18:53:42.799Z,100601.63
2022-08-29T18:56:12.288Z,100612.81
2022-08-29T18:58:44.330Z,100603.09
2022-08-29T19:01:14.365Z,100604.88
2022-08-29T19:03:46.474Z,100608.16
2022-08-29T19:06:17.573Z,100612.59
2022-08-29T19:08:47.025Z,100616.69
2022-08-29T19:11:16.658Z,100619.41
2022-08-29T19:13:46.291Z,100622.72
2022-08-29T19:16:15.798Z,100623.88
2022-08-29T19:18:47.933Z,100629.34
2022-08-29T19:21:14.821Z,100639.97
2022-08-29T19:23:45.548Z,100633.50
2022-08-29T19:26:17.275Z,100639.00
2022-08-29T19:28:46.991Z,100642.00
2022-08-29T19:31:18.088Z,100643.19
2022-08-29T19:33:50.243Z,100636.22
2022-08-29T19:36:20.122Z,100637.56
2022-08-29T19:38:49.604Z,100632.75
2022-08-29T19:41:19.234Z,100632.25
2022-08-29T19:43:48.885Z,100633.63
2022-08-29T19:46:20.055Z,100632.81
2022-08-29T19:48:53.060Z,100635.53
2022-08-29T19:51:25.271Z,100636.13
2022-08-29T19:53:57.088Z,100636.13
2022-08-29T19:56:28.519Z,100635.13
2022-08-29T19:58:58.391Z,100634.69
2022-08-29T20:01:28.309Z,100634.38
2022-08-29T20:04:00.399Z,100638.75
2022-08-29T20:06:29.837Z,100633.41
2022-08-29T20:08:59.450Z,100635.09
2022-08-29T20:11:29.345Z,100641.41
2022-08-29T20:13:59.475Z,100634.19
2022-08-29T20:16:30.167Z,100640.63
2022-08-29T20:19:05.484Z,100644.44
2022-08-29T20:21:35.942Z,100638.22
2022-08-29T20:24:06.401Z,100643.38
2022-08-29T20:26:37.505Z,100655.03
2022-08-29T20:29:08.455Z,100650.72
2022-08-29T20:31:40.637Z,100656.41
2022-08-29T20:34:12.742Z,100658.06
2022-08-29T20:36:55.118Z,100661.31
2022-08-29T20:39:25.519Z,100668.94
2022-08-29T20:41:56.382Z,100671.22
2022-08-29T20:44:30.262Z,100667.91
2022-08-29T20:47:02.674Z,100669.78
2022-08-29T20:49:35.042Z,100674.56
2022-08-29T20:52:05.116Z,100668.06
2022-08-29T20:54:34.814Z,100671.28
2022-08-29T20:57:04.330Z,100674.53
2022-08-29T20:59:34.511Z,100677.84
2022-08-29T21:02:04.905Z,100676.53
2022-08-29T21:04:49.527Z,100677.88
2022-08-29T21:07:20.649Z,100689.28
2022-08-29T21:09:51.026Z,100686.84
2022-08-29T21:12:21.062Z,100687.41
2022-08-29T21:14:50.562Z,100692.03
2022-08-29T21:17:20.749Z,100691.22
2022-08-29T21:19:52.753Z,100691.81
2022-08-29T21:22:25.016Z,100695.31
2022-08-29T21:24:56.628Z,100695.31
2022-08-29T21:27:26.129Z,100689.63
2022-08-29T21:29:57.860Z,100685.06
2022-08-29T21:32:27.442Z,100688.84
2022-08-29T21:34:59.445Z,100688.03
2022-08-29T21:37:28.890Z,100688.81
2022-08-29T21:39:58.851Z,100693.69
2022-08-29T21:42:28.382Z,100700.97
2022-08-29T21:44:58.030Z,100702.06
2022-08-29T21:47:27.470Z,100699.13
2022-08-29T21:49:59.696Z,100705.34
2022-08-29T21:52:29.146Z,100695.06
2022-08-29T21:54:58.695Z,100706.69
2022-08-29T21:57:40.639Z,100695.91
2022-08-29T22:00:11.533Z,100709.41
2022-08-29T22:02:41.981Z,100705.06
2022-08-29T22:05:14.093Z,100714.78
2022-08-29T22:07:43.537Z,100705.59
2022-08-29T22:10:18.513Z,100706.97
2022-08-29T22:12:48.045Z,100706.97
2022-08-29T22:15:30.092Z,100705.59
2022-08-29T22:17:59.549Z,100715.59
2022-08-29T22:20:31.655Z,100707.50
2022-08-29T22:23:01.099Z,100709.38
2022-08-29T22:25:30.796Z,100712.63
2022-08-29T22:28:00.277Z,100710.47
2022-08-29T22:30:32.267Z,100723.69
2022-08-29T22:33:02.057Z,100713.16
2022-08-29T22:35:34.149Z,100713.97
2022-08-29T22:38:03.578Z,100715.31
2022-08-29T22:40:33.066Z,100721.22
2022-08-29T22:43:02.543Z,100724.75
2022-08-29T22:45:32.324Z,100706.94
2022-08-29T22:48:01.797Z,100708.28
2022-08-29T22:50:33.811Z,100712.56
2022-08-29T22:53:03.802Z,100714.19
2022-08-29T22:55:33.283Z,100716.88
2022-08-29T22:58:04.564Z,100712.56
2022-08-29T23:00:34.012Z,100712.28
2022-08-29T23:03:03.761Z,100708.47
2022-08-29T23:05:35.964Z,100703.09
2022-08-29T23:08:05.912Z,100706.59
2022-08-29T23:10:35.605Z,100702.78
2022-08-29T23:13:05.053Z,100706.03
2022-08-29T23:15:34.597Z,100708.44
2022-08-29T23:18:05.156Z,100707.09
2022-08-29T23:20:37.182Z,100704.13
2022-08-29T23:23:08.547Z,100700.06
2022-08-29T23:25:38.151Z,100702.78
2022-08-29T23:28:07.619Z,100704.94
2022-08-29T23:30:37.057Z,100695.50
2022-08-29T23:33:06.887Z,100699.22
2022-08-29T23:35:41.051Z,100705.44
2022-08-29T23:38:10.542Z,100705.94
2022-08-29T23:40:40.280Z,100703.22
2022-08-29T23:43:09.810Z,100698.94
2022-08-29T23:45:39.638Z,100708.88
2022-08-29T23:48:09.664Z,100694.53
2022-08-29T23:50:41.714Z,100704.22
2022-08-29T23:53:15.002Z,100700.44
2022-08-29T23:55:44.624Z,100698.53
2022-08-29T23:58:14.083Z,100695.00
